sensor_id;sensor_type;location;lat;lon;timestamp;temperature;humidity
21672;DHT22;10997;52.242;8.168;2022-10-16T00:03:16;12.80;99.90
21672;DHT22;10997;52.242;8.168;2022-10-16T00:08:17;12.80;99.90
21672;DHT22;10997;52.242;8.168;2022-10-16T00:13:18;12.80;99.90
21672;DHT22;10997;52.242;8.168;2022-10-16T00:18:20;12.80;99.90
21672;DHT22;10997;52.242;8.168;2022-10-16T00:23:21;12.80;99.90
21672;DHT22;10997;52.242;8.168;2022-10-16T00:28:22;12.80;99.90
21672;DHT22;10997;52.242;8.168;2022-10-16T00:33:23;12.70;99.90
21672;DHT22;10997;52.242;8.168;2022-10-16T00:38:24;12.70;99.90
21672;DHT22;10997;52.242;8.168;2022-10-16T00:43:43;12.70;99.90
21672;DHT22;10997;52.242;8.168;2022-10-16T00:49:01;12.70;99.90
21672;DHT22;10997;52.242;8.168;2022-10-16T00:54:06;12.70;99.90
21672;DHT22;10997;52.242;8.168;2022-10-16T00:59:19;12.70;99.90
21672;DHT22;10997;52.242;8.168;2022-10-16T01:04:21;12.70;99.90
21672;DHT22;10997;52.242;8.168;2022-10-16T01:14:54;12.60;99.90
21672;DHT22;10997;52.242;8.168;2022-10-16T01:25:25;12.50;99.90
21672;DHT22;10997;52.242;8.168;2022-10-16T01:30:32;12.40;99.90
21672;DHT22;10997;52.242;8.168;2022-10-16T01:35:40;12.40;99.90
21672;DHT22;10997;52.242;8.168;2022-10-16T01:40:45;12.30;99.90
21672;DHT22;10997;52.242;8.168;2022-10-16T01:45:47;12.30;99.90
21672;DHT22;10997;52.242;8.168;2022-10-16T01:51:04;12.40;99.90
21672;DHT22;10997;52.242;8.168;2022-10-16T01:56:08;12.30;99.90
21672;DHT22;10997;52.242;8.168;2022-10-16T02:01:11;12.30;99.90
21672;DHT22;10997;52.242;8.168;2022-10-16T02:06:13;12.30;99.90
21672;DHT22;10997;52.242;8.168;2022-10-16T02:11:14;12.20;99.90
21672;DHT22;10997;52.242;8.168;2022-10-16T02:16:15;12.30;99.90
21672;DHT22;10997;52.242;8.168;2022-10-16T02:21:22;12.30;99.90
21672;DHT22;10997;52.242;8.168;2022-10-16T02:31:40;12.30;99.90
21672;DHT22;10997;52.242;8.168;2022-10-16T02:36:42;12.20;99.90
21672;DHT22;10997;52.242;8.168;2022-10-16T02:41:43;12.30;99.90
21672;DHT22;10997;52.242;8.168;2022-10-16T02:46:44;12.20;99.90
21672;DHT22;10997;52.242;8.168;2022-10-16T02:51:45;12.30;99.90
21672;DHT22;10997;52.242;8.168;2022-10-16T02:56:45;12.20;99.90
21672;DHT22;10997;52.242;8.168;2022-10-16T03:01:46;12.20;99.90
21672;DHT22;10997;52.242;8.168;2022-10-16T03:06:47;12.30;99.90
21672;DHT22;10997;52.242;8.168;2022-10-16T03:11:47;12.20;99.90
21672;DHT22;10997;52.242;8.168;2022-10-16T03:16:48;12.20;99.90
21672;DHT22;10997;52.242;8.168;2022-10-16T03:21:49;12.20;99.90
21672;DHT22;10997;52.242;8.168;2022-10-16T03:26:49;12.10;99.90
21672;DHT22;10997;52.242;8.168;2022-10-16T03:31:50;12.10;99.90
21672;DHT22;10997;52.242;8.168;2022-10-16T03:36:51;12.20;99.90
21672;DHT22;10997;52.242;8.168;2022-10-16T03:41:51;12.20;99.90
21672;DHT22;10997;52.242;8.168;2022-10-16T03:46:52;12.10;99.90
21672;DHT22;10997;52.242;8.168;2022-10-16T03:51:53;12.10;99.90
21672;DHT22;10997;52.242;8.168;2022-10-16T03:56:53;12.10;99.90
21672;DHT22;10997;52.242;8.168;2022-10-16T04:01:54;12.10;99.90
21672;DHT22;10997;52.242;8.168;2022-10-16T04:06:54;12.10;99.90
21672;DHT22;10997;52.242;8.168;2022-10-16T04:11:55;12.10;99.90
21672;DHT22;10997;52.242;8.168;2022-10-16T04:16:56;12.10;99.90
21672;DHT22;10997;52.242;8.168;2022-10-16T04:21:56;12.00;99.90
21672;DHT22;10997;52.242;8.168;2022-10-16T04:26:57;12.00;99.90
21672;DHT22;10997;52.242;8.168;2022-10-16T04:31:58;12.00;99.90
21672;DHT22;10997;52.242;8.168;2022-10-16T04:36:58;12.00;99.90
21672;DHT22;10997;52.242;8.168;2022-10-16T04:41:59;12.00;99.90
21672;DHT22;10997;52.242;8.168;2022-10-16T04:47:00;12.00;99.90
21672;DHT22;10997;52.242;8.168;2022-10-16T04:52:01;12.00;99.90
21672;DHT22;10997;52.242;8.168;2022-10-16T04:57:02;12.00;99.90
21672;DHT22;10997;52.242;8.168;2022-10-16T05:02:03;12.00;99.90
21672;DHT22;10997;52.242;8.168;2022-10-16T05:07:03;12.00;99.90
21672;DHT22;10997;52.242;8.168;2022-10-16T05:12:04;12.00;99.90
21672;DHT22;10997;52.242;8.168;2022-10-16T05:17:05;11.90;99.90
21672;DHT22;10997;52.242;8.168;2022-10-16T05:22:05;12.00;99.90
21672;DHT22;10997;52.242;8.168;2022-10-16T05:27:06;12.10;99.90
21672;DHT22;10997;52.242;8.168;2022-10-16T05:32:07;12.10;99.90
21672;DHT22;10997;52.242;8.168;2022-10-16T05:37:08;12.10;99.90
21672;DHT22;10997;52.242;8.168;2022-10-16T05:42:09;12.10;99.90
21672;DHT22;10997;52.242;8.168;2022-10-16T05:47:12;12.10;99.90
21672;DHT22;10997;52.242;8.168;2022-10-16T05:52:13;12.20;99.90
21672;DHT22;10997;52.242;8.168;2022-10-16T05:57:14;12.20;99.90
21672;DHT22;10997;52.242;8.168;2022-10-16T06:02:14;12.20;99.90
21672;DHT22;10997;52.242;8.168;2022-10-16T06:07:15;12.20;99.90
21672;DHT22;10997;52.242;8.168;2022-10-16T06:12:16;12.30;99.90
21672;DHT22;10997;52.242;8.168;2022-10-16T06:17:17;12.30;99.90
21672;DHT22;10997;52.242;8.168;2022-10-16T06:22:17;12.30;99.90
21672;DHT22;10997;52.242;8.168;2022-10-16T06:27:18;12.30;99.90
21672;DHT22;10997;52.242;8.168;2022-10-16T06:32:19;12.40;99.90
21672;DHT22;10997;52.242;8.168;2022-10-16T06:37:19;12.40;99.90
21672;DHT22;10997;52.242;8.168;2022-10-16T06:42:20;12.50;99.90
21672;DHT22;10997;52.242;8.168;2022-10-16T06:47:21;12.50;99.90
21672;DHT22;10997;52.242;8.168;2022-10-16T06:52:21;12.60;99.90
21672;DHT22;10997;52.242;8.168;2022-10-16T06:57:22;12.60;99.90
21672;DHT22;10997;52.242;8.168;2022-10-16T07:02:24;12.70;99.90
21672;DHT22;10997;52.242;8.168;2022-10-16T07:07:25;12.80;99.90
21672;DHT22;10997;52.242;8.168;2022-10-16T07:12:26;12.80;99.90
21672;DHT22;10997;52.242;8.168;2022-10-16T07:17:27;12.80;99.90
21672;DHT22;10997;52.242;8.168;2022-10-16T07:22:28;12.80;99.90
21672;DHT22;10997;52.242;8.168;2022-10-16T07:27:29;12.90;99.90
21672;DHT22;10997;52.242;8.168;2022-10-16T07:32:29;12.90;99.90
21672;DHT22;10997;52.242;8.168;2022-10-16T07:37:31;12.90;99.90
21672;DHT22;10997;52.242;8.168;2022-10-16T07:42:31;12.90;99.90
21672;DHT22;10997;52.242;8.168;2022-10-16T07:47:32;13.00;99.90
21672;DHT22;10997;52.242;8.168;2022-10-16T07:52:33;13.10;99.90
21672;DHT22;10997;52.242;8.168;2022-10-16T07:57:33;13.30;99.90
21672;DHT22;10997;52.242;8.168;2022-10-16T08:02:34;13.50;99.90
21672;DHT22;10997;52.242;8.168;2022-10-16T08:07:35;13.70;99.90
21672;DHT22;10997;52.242;8.168;2022-10-16T08:12:35;13.80;99.90
21672;DHT22;10997;52.242;8.168;2022-10-16T08:17:36;14.00;99.90
21672;DHT22;10997;52.242;8.168;2022-10-16T08:22:37;14.10;99.90
21672;DHT22;10997;52.242;8.168;2022-10-16T08:27:37;14.20;99.90
21672;DHT22;10997;52.242;8.168;2022-10-16T08:32:38;14.30;99.90
21672;DHT22;10997;52.242;8.168;2022-10-16T08:37:39;14.50;99.90
21672;DHT22;10997;52.242;8.168;2022-10-16T08:43:08;14.70;99.90
21672;DHT22;10997;52.242;8.168;2022-10-16T08:53:21;14.90;99.90
21672;DHT22;10997;52.242;8.168;2022-10-16T08:58:29;14.90;99.90
21672;DHT22;10997;52.242;8.168;2022-10-16T09:24:27;15.50;99.90
21672;DHT22;10997;52.242;8.168;2022-10-16T09:29:28;15.60;99.90
21672;DHT22;10997;52.242;8.168;2022-10-16T09:34:36;15.70;99.90
21672;DHT22;10997;52.242;8.168;2022-10-16T09:39:52;15.80;99.90
21672;DHT22;10997;52.242;8.168;2022-10-16T09:44:53;16.00;99.90
21672;DHT22;10997;52.242;8.168;2022-10-16T09:49:56;16.10;99.90
21672;DHT22;10997;52.242;8.168;2022-10-16T09:55:13;16.30;99.90
21672;DHT22;10997;52.242;8.168;2022-10-16T10:00:17;16.40;99.90
21672;DHT22;10997;52.242;8.168;2022-10-16T10:10:27;16.50;99.90
21672;DHT22;10997;52.242;8.168;2022-10-16T10:15:41;17.00;99.90
21672;DHT22;10997;52.242;8.168;2022-10-16T10:20:41;17.10;99.90
21672;DHT22;10997;52.242;8.168;2022-10-16T10:41:57;16.80;99.90
21672;DHT22;10997;52.242;8.168;2022-10-16T11:08:35;17.50;99.90
21672;DHT22;10997;52.242;8.168;2022-10-16T11:30:01;18.00;99.90
21672;DHT22;10997;52.242;8.168;2022-10-16T11:35:19;18.10;99.90
21672;DHT22;10997;52.242;8.168;2022-10-16T11:40:23;18.20;99.90
21672;DHT22;10997;52.242;8.168;2022-10-16T11:45:36;18.60;99.90
21672;DHT22;10997;52.242;8.168;2022-10-16T11:55:44;18.90;99.90
21672;DHT22;10997;52.242;8.168;2022-10-16T12:06:44;18.90;99.90
21672;DHT22;10997;52.242;8.168;2022-10-16T12:11:46;18.70;99.90
21672;DHT22;10997;52.242;8.168;2022-10-16T12:17:01;18.50;99.90
21672;DHT22;10997;52.242;8.168;2022-10-16T12:22:03;18.60;99.90
21672;DHT22;10997;52.242;8.168;2022-10-16T12:27:27;18.20;99.90
21672;DHT22;10997;52.242;8.168;2022-10-16T12:32:32;18.30;99.90
21672;DHT22;10997;52.242;8.168;2022-10-16T12:37:36;18.00;99.90
21672;DHT22;10997;52.242;8.168;2022-10-16T12:42:37;17.90;99.90
21672;DHT22;10997;52.242;8.168;2022-10-16T12:47:48;18.40;99.90
21672;DHT22;10997;52.242;8.168;2022-10-16T12:52:49;18.20;99.90
21672;DHT22;10997;52.242;8.168;2022-10-16T12:58:21;18.10;99.90
21672;DHT22;10997;52.242;8.168;2022-10-16T13:03:48;18.00;99.90
21672;DHT22;10997;52.242;8.168;2022-10-16T13:30:01;18.10;99.90
21672;DHT22;10997;52.242;8.168;2022-10-16T13:35:02;18.30;99.90
21672;DHT22;10997;52.242;8.168;2022-10-16T13:40:22;18.40;99.90
21672;DHT22;10997;52.242;8.168;2022-10-16T13:45:24;18.40;99.90
21672;DHT22;10997;52.242;8.168;2022-10-16T13:50:25;18.50;99.90
21672;DHT22;10997;52.242;8.168;2022-10-16T13:55:32;18.70;99.90
21672;DHT22;10997;52.242;8.168;2022-10-16T14:00:33;18.90;99.90
21672;DHT22;10997;52.242;8.168;2022-10-16T14:05:47;18.90;99.90
21672;DHT22;10997;52.242;8.168;2022-10-16T14:10:51;18.90;99.90
21672;DHT22;10997;52.242;8.168;2022-10-16T14:15:52;18.80;99.90
21672;DHT22;10997;52.242;8.168;2022-10-16T14:20:54;18.90;99.90
21672;DHT22;10997;52.242;8.168;2022-10-16T14:26:19;19.00;99.90
21672;DHT22;10997;52.242;8.168;2022-10-16T14:31:31;19.20;99.90
21672;DHT22;10997;52.242;8.168;2022-10-16T14:36:33;19.30;99.90
21672;DHT22;10997;52.242;8.168;2022-10-16T14:41:43;19.20;99.90
21672;DHT22;10997;52.242;8.168;2022-10-16T14:46:46;19.20;99.90
21672;DHT22;10997;52.242;8.168;2022-10-16T14:51:46;19.10;99.90
21672;DHT22;10997;52.242;8.168;2022-10-16T14:56:56;19.00;99.90
21672;DHT22;10997;52.242;8.168;2022-10-16T15:01:57;18.90;99.90
21672;DHT22;10997;52.242;8.168;2022-10-16T15:06:58;18.80;99.90
21672;DHT22;10997;52.242;8.168;2022-10-16T15:11:58;18.80;99.90
21672;DHT22;10997;52.242;8.168;2022-10-16T15:16:59;18.80;99.90
21672;DHT22;10997;52.242;8.168;2022-10-16T15:22:03;18.60;99.90
21672;DHT22;10997;52.242;8.168;2022-10-16T15:27:04;18.20;99.90
21672;DHT22;10997;52.242;8.168;2022-10-16T15:32:04;18.10;99.90
21672;DHT22;10997;52.242;8.168;2022-10-16T15:37:05;18.00;99.90
21672;DHT22;10997;52.242;8.168;2022-10-16T15:42:06;17.80;99.90
21672;DHT22;10997;52.242;8.168;2022-10-16T15:47:07;17.50;99.90
21672;DHT22;10997;52.242;8.168;2022-10-16T15:52:08;17.40;99.90
21672;DHT22;10997;52.242;8.168;2022-10-16T15:57:09;17.20;99.90
21672;DHT22;10997;52.242;8.168;2022-10-16T16:02:10;17.20;99.90
21672;DHT22;10997;52.242;8.168;2022-10-16T16:07:11;17.10;99.90
21672;DHT22;10997;52.242;8.168;2022-10-16T16:12:11;17.00;99.90
21672;DHT22;10997;52.242;8.168;2022-10-16T16:17:12;16.90;99.90
21672;DHT22;10997;52.242;8.168;2022-10-16T16:22:13;16.70;99.90
21672;DHT22;10997;52.242;8.168;2022-10-16T16:27:13;16.60;99.90
21672;DHT22;10997;52.242;8.168;2022-10-16T16:32:14;16.40;99.90
21672;DHT22;10997;52.242;8.168;2022-10-16T16:37:15;16.30;99.90
21672;DHT22;10997;52.242;8.168;2022-10-16T16:42:15;16.20;99.90
21672;DHT22;10997;52.242;8.168;2022-10-16T16:47:16;16.00;99.90
21672;DHT22;10997;52.242;8.168;2022-10-16T16:52:17;15.90;99.90
21672;DHT22;10997;52.242;8.168;2022-10-16T16:57:19;15.80;99.90
21672;DHT22;10997;52.242;8.168;2022-10-16T17:02:20;15.70;99.90
21672;DHT22;10997;52.242;8.168;2022-10-16T17:07:21;15.50;99.90
21672;DHT22;10997;52.242;8.168;2022-10-16T17:12:29;15.40;99.90
21672;DHT22;10997;52.242;8.168;2022-10-16T17:17:30;15.30;99.90
21672;DHT22;10997;52.242;8.168;2022-10-16T17:22:31;15.20;99.90
21672;DHT22;10997;52.242;8.168;2022-10-16T17:27:31;15.10;99.90
21672;DHT22;10997;52.242;8.168;2022-10-16T17:32:33;15.10;99.90
21672;DHT22;10997;52.242;8.168;2022-10-16T17:37:34;15.00;99.90
21672;DHT22;10997;52.242;8.168;2022-10-16T17:42:35;15.00;99.90
21672;DHT22;10997;52.242;8.168;2022-10-16T17:47:36;14.90;99.90
21672;DHT22;10997;52.242;8.168;2022-10-16T17:52:37;14.90;99.90
21672;DHT22;10997;52.242;8.168;2022-10-16T17:57:37;14.80;99.90
21672;DHT22;10997;52.242;8.168;2022-10-16T18:02:38;14.70;99.90
21672;DHT22;10997;52.242;8.168;2022-10-16T18:07:41;14.60;99.90
21672;DHT22;10997;52.242;8.168;2022-10-16T18:12:42;14.50;99.90
21672;DHT22;10997;52.242;8.168;2022-10-16T18:17:43;14.40;99.90
21672;DHT22;10997;52.242;8.168;2022-10-16T18:22:43;14.40;99.90
21672;DHT22;10997;52.242;8.168;2022-10-16T18:27:44;14.40;99.90
21672;DHT22;10997;52.242;8.168;2022-10-16T18:32:45;14.30;99.90
21672;DHT22;10997;52.242;8.168;2022-10-16T18:37:45;14.30;99.90
21672;DHT22;10997;52.242;8.168;2022-10-16T18:42:46;14.30;99.90
21672;DHT22;10997;52.242;8.168;2022-10-16T18:47:47;14.20;99.90
21672;DHT22;10997;52.242;8.168;2022-10-16T18:52:48;14.10;99.90
21672;DHT22;10997;52.242;8.168;2022-10-16T18:57:48;14.10;99.90
21672;DHT22;10997;52.242;8.168;2022-10-16T19:02:49;14.00;99.90
21672;DHT22;10997;52.242;8.168;2022-10-16T19:07:50;13.90;99.90
21672;DHT22;10997;52.242;8.168;2022-10-16T19:12:51;13.90;99.90
21672;DHT22;10997;52.242;8.168;2022-10-16T19:17:52;13.80;99.90
21672;DHT22;10997;52.242;8.168;2022-10-16T19:22:52;13.80;99.90
21672;DHT22;10997;52.242;8.168;2022-10-16T19:27:56;13.80;99.90
21672;DHT22;10997;52.242;8.168;2022-10-16T19:32:56;13.70;99.90
21672;DHT22;10997;52.242;8.168;2022-10-16T19:37:57;13.70;99.90
21672;DHT22;10997;52.242;8.168;2022-10-16T19:42:58;13.70;99.90
21672;DHT22;10997;52.242;8.168;2022-10-16T19:47:59;13.60;99.90
21672;DHT22;10997;52.242;8.168;2022-10-16T19:52:59;13.60;99.90
21672;DHT22;10997;52.242;8.168;2022-10-16T19:58:00;13.60;99.90
21672;DHT22;10997;52.242;8.168;2022-10-16T20:03:01;13.60;99.90
21672;DHT22;10997;52.242;8.168;2022-10-16T20:08:03;13.60;99.90
21672;DHT22;10997;52.242;8.168;2022-10-16T20:13:03;13.60;99.90
21672;DHT22;10997;52.242;8.168;2022-10-16T20:18:04;13.70;99.90
21672;DHT22;10997;52.242;8.168;2022-10-16T20:23:05;13.70;99.90
21672;DHT22;10997;52.242;8.168;2022-10-16T20:28:08;13.70;99.90
21672;DHT22;10997;52.242;8.168;2022-10-16T20:33:09;13.80;99.90
21672;DHT22;10997;52.242;8.168;2022-10-16T20:38:11;13.80;99.90
21672;DHT22;10997;52.242;8.168;2022-10-16T20:43:14;13.80;99.90
21672;DHT22;10997;52.242;8.168;2022-10-16T20:48:15;13.90;99.90
21672;DHT22;10997;52.242;8.168;2022-10-16T20:53:16;13.90;99.90
21672;DHT22;10997;52.242;8.168;2022-10-16T20:58:17;13.90;99.90
21672;DHT22;10997;52.242;8.168;2022-10-16T21:03:17;14.00;99.90
21672;DHT22;10997;52.242;8.168;2022-10-16T21:08:18;14.10;99.90
21672;DHT22;10997;52.242;8.168;2022-10-16T21:13:19;14.10;99.90
21672;DHT22;10997;52.242;8.168;2022-10-16T21:18:19;14.10;99.90
21672;DHT22;10997;52.242;8.168;2022-10-16T21:23:20;14.10;99.90
21672;DHT22;10997;52.242;8.168;2022-10-16T21:28:20;14.00;99.90
21672;DHT22;10997;52.242;8.168;2022-10-16T21:33:23;14.00;99.90
21672;DHT22;10997;52.242;8.168;2022-10-16T21:38:23;14.00;99.90
21672;DHT22;10997;52.242;8.168;2022-10-16T21:43:24;14.00;99.90
21672;DHT22;10997;52.242;8.168;2022-10-16T21:48:25;13.90;99.90
21672;DHT22;10997;52.242;8.168;2022-10-16T21:53:25;13.90;99.90
21672;DHT22;10997;52.242;8.168;2022-10-16T21:58:26;13.90;99.90
21672;DHT22;10997;52.242;8.168;2022-10-16T22:03:27;13.90;99.90
21672;DHT22;10997;52.242;8.168;2022-10-16T22:08:28;13.90;99.90
21672;DHT22;10997;52.242;8.168;2022-10-16T22:13:29;13.90;99.90
21672;DHT22;10997;52.242;8.168;2022-10-16T22:18:30;13.90;99.90
21672;DHT22;10997;52.242;8.168;2022-10-16T22:23:31;13.80;99.90
21672;DHT22;10997;52.242;8.168;2022-10-16T22:28:32;13.80;99.90
21672;DHT22;10997;52.242;8.168;2022-10-16T22:33:32;13.80;99.90
21672;DHT22;10997;52.242;8.168;2022-10-16T22:38:35;13.70;99.90
21672;DHT22;10997;52.242;8.168;2022-10-16T22:43:41;13.60;99.90
21672;DHT22;10997;52.242;8.168;2022-10-16T22:48:43;13.60;99.90
21672;DHT22;10997;52.242;8.168;2022-10-16T22:53:45;13.60;99.90
21672;DHT22;10997;52.242;8.168;2022-10-16T22:58:47;13.50;99.90
21672;DHT22;10997;52.242;8.168;2022-10-16T23:03:47;13.40;99.90
21672;DHT22;10997;52.242;8.168;2022-10-16T23:08:56;13.30;99.90
21672;DHT22;10997;52.242;8.168;2022-10-16T23:13:57;13.30;99.90
21672;DHT22;10997;52.242;8.168;2022-10-16T23:18:58;13.20;99.90
21672;DHT22;10997;52.242;8.168;2022-10-16T23:23:58;13.10;99.90
21672;DHT22;10997;52.242;8.168;2022-10-16T23:29:00;13.00;99.90
21672;DHT22;10997;52.242;8.168;2022-10-16T23:34:00;13.00;99.90
21672;DHT22;10997;52.242;8.168;2022-10-16T23:39:02;12.90;99.90
21672;DHT22;10997;52.242;8.168;2022-10-16T23:44:03;12.80;99.90
21672;DHT22;10997;52.242;8.168;2022-10-16T23:49:04;12.80;99.90
21672;DHT22;10997;52.242;8.168;2022-10-16T23:54:04;12.80;99.90
21672;DHT22;10997;52.242;8.168;2022-10-16T23:59:05;12.70;99.90
